Time;durP1;ratioP1;P1;durP2;ratioP2;P2;SDS_P1;SDS_P2;PMS_P1;PMS_P2;Temp;Humidity;BMP_temperature;BMP_pressure;BME280_temperature;BME280_humidity;BME280_pressure;Samples;Min_cycle;Max_cycle;Signal;HPM_P1;HPM_P2
2022/08/24 00:00:14;;;;;;;;;;;;;;;;;;5071464;28;1079;-70
2022/08/24 00:02:40;;;;;;;;;;;;;;;;;;5083246;28;1530;-71
2022/08/24 00:05:07;;;;;;;;;;;;;;;;;;5071625;28;1007;-72
2022/08/24 00:07:34;;;;;;;;;;;;;;;;;;5071295;28;957;-73
2022/08/24 00:10:00;;;;;;;;;;;;;;;;;;5071232;28;1059;-72
2022/08/24 00:12:27;;;;;;;;;;;;;;;;;;5071285;28;1314;-70
2022/08/24 00:14:54;;;;;;;;;;;;;;;;;;5071175;28;1914;-72
2022/08/24 00:17:20;;;;;;;;;;;;;;;;;;5071292;28;882;-72
2022/08/24 00:19:46;;;;;;;;;;;;;;;;;;5071227;28;1138;-72
2022/08/24 00:22:12;;;;;;;;;;;;;;;;;;5070721;28;1297;-73
2022/08/24 00:24:39;;;;;;;;;;;;;;;;;;5074496;28;985;-73
2022/08/24 00:27:05;;;;;;;;;;;;;;;;;;5074779;28;1123;-72
2022/08/24 00:29:33;;;;;;;;;;;;;;;;;;5075073;28;771;-72
2022/08/24 00:31:59;;;;;;;;;;;;;;;;;;5089986;28;1395;-73
2022/08/24 00:34:25;;;;;;;;;;;;;;;;;;5074863;28;1973;-70
2022/08/24 00:36:52;;;;;;;;;;;;;;;;;;5075168;28;932;-72
2022/08/24 00:39:18;;;;;;;;;;;;;;;;;;5090299;28;1332;-71
2022/08/24 00:41:46;;;;;;;;;;;;;;;;;;5074516;28;1405;-72
2022/08/24 00:44:13;;;;;;;;;;;;;;;;;;5090337;28;1369;-72
2022/08/24 00:46:43;;;;;;;;;;;;;;;;;;5090696;28;1189;-71
2022/08/24 00:49:14;;;;;;;;;;;;;;;;;;5090461;28;1465;-72
2022/08/24 00:51:41;;;;;;;;;;;;;;;;;;5089968;28;1343;-71
2022/08/24 00:54:08;;;;;;;;;;;;;;;;;;5090145;28;1910;-70
2022/08/24 00:56:36;;;;;;;;;;;;;;;;;;5074687;28;940;-71
2022/08/24 00:59:04;;;;;;;;;;;;;;;;;;5090443;28;1242;-71
2022/08/24 01:01:30;;;;;;;;;;;;;;;;;;5089581;28;1408;-71
2022/08/24 01:03:58;;;;;;;;;;;;;;;;;;5090111;28;1295;-71
2022/08/24 01:06:25;;;;;;;;;;;;;;;;;;5074473;28;778;-71
2022/08/24 01:08:51;;;;;;;;;;;;;;;;;;5089978;28;901;-71
2022/08/24 01:11:18;;;;;;;;;;;;;;;;;;5089615;28;1403;-71
2022/08/24 01:13:44;;;;;;;;;;;;;;;;;;5074332;28;1910;-72
2022/08/24 01:16:11;;;;;;;;;;;;;;;;;;5074321;28;791;-72
2022/08/24 01:18:48;;;;;;;;;;;;;;;;;;5089877;28;1261;-71
2022/08/24 01:21:17;;;;;;;;;;;;;;;;;;5073725;28;1340;-72
2022/08/24 01:23:44;;;;;;;;;;;;;;;;;;5089806;28;1180;-73
2022/08/24 01:26:12;;;;;;;;;;;;;;;;;;5089582;28;1351;-72
2022/08/24 01:28:39;;;;;;;;;;;;;;;;;;5089713;28;1280;-71
2022/08/24 01:31:06;;;;;;;;;;;;;;;;;;5073988;28;1301;-72
2022/08/24 01:33:33;;;;;;;;;;;;;;;;;;5089278;28;1306;-72
2022/08/24 01:36:00;;;;;;;;;;;;;;;;;;5088943;28;1909;-70
2022/08/24 01:38:27;;;;;;;;;;;;;;;;;;5089139;28;1247;-72
2022/08/24 01:40:56;;;;;;;;;;;;;;;;;;5055917;28;1315;-71
2022/08/24 01:43:23;;;;;;;;;;;;;;;;;;5089179;28;1567;-71
2022/08/24 01:45:49;;;;;;;;;;;;;;;;;;5089511;28;1320;-72
2022/08/24 01:48:15;;;;;;;;;;;;;;;;;;5089390;28;1157;-71
2022/08/24 01:50:42;;;;;;;;;;;;;;;;;;5089031;28;1325;-70
2022/08/24 01:53:09;;;;;;;;;;;;;;;;;;5088858;28;1471;-69
2022/08/24 01:55:36;;;;;;;;;;;;;;;;;;5089161;28;1977;-71
2022/08/24 01:58:04;;;;;;;;;;;;;;;;;;5073475;28;884;-72
2022/08/24 02:00:30;;;;;;;;;;;;;;;;;;5089102;28;1568;-71
2022/08/24 02:02:56;;;;;;;;;;;;;;;;;;5072898;28;1036;-72
2022/08/24 02:05:23;;;;;;;;;;;;;;;;;;5088884;28;1195;-71
2022/08/24 02:07:50;;;;;;;;;;;;;;;;;;5088909;28;1163;-71
2022/08/24 02:10:16;;;;;;;;;;;;;;;;;;5088803;28;1549;-70
2022/08/24 02:12:43;;;;;;;;;;;;;;;;;;5085332;28;1494;-73
2022/08/24 02:15:11;;;;;;;;;;;;;;;;;;5088645;28;1965;-71
2022/08/24 02:17:39;;;;;;;;;;;;;;;;;;5088660;28;1450;-71
2022/08/24 02:20:06;;;;;;;;;;;;;;;;;;5089292;28;1277;-72
2022/08/24 02:22:32;;;;;;;;;;;;;;;;;;5089005;28;1322;-72
2022/08/24 02:24:58;;;;;;;;;;;;;;;;;;5088936;28;1167;-71
2022/08/24 02:27:24;;;;;;;;;;;;;;;;;;5088329;28;1277;-71
2022/08/24 02:29:51;;;;;;;;;;;;;;;;;;5069574;28;2094;-72
2022/08/24 02:32:19;;;;;;;;;;;;;;;;;;5054132;28;1510;-71
2022/08/24 02:34:48;;;;;;;;;;;;;;;;;;5054898;28;1973;-72
2022/08/24 02:37:14;;;;;;;;;;;;;;;;;;5054904;28;1359;-72
2022/08/24 02:39:41;;;;;;;;;;;;;;;;;;5054722;28;2289;-71
2022/08/24 02:42:14;;;;;;;;;;;;;;;;;;5054345;28;1411;-72
2022/08/24 02:44:40;;;;;;;;;;;;;;;;;;5072374;28;856;-71
2022/08/24 02:47:06;;;;;;;;;;;;;;;;;;5053927;28;1152;-72
2022/08/24 02:49:35;;;;;;;;;;;;;;;;;;5054566;28;1329;-71
2022/08/24 02:52:02;;;;;;;;;;;;;;;;;;5054145;28;1375;-72
2022/08/24 02:54:28;;;;;;;;;;;;;;;;;;5054487;28;1899;-71
2022/08/24 02:56:54;;;;;;;;;;;;;;;;;;5054152;28;1432;-71
2022/08/24 02:59:21;;;;;;;;;;;;;;;;;;5054688;28;1618;-72
2022/08/24 03:01:48;;;;;;;;;;;;;;;;;;5053695;28;1325;-71
2022/08/24 03:04:14;;;;;;;;;;;;;;;;;;5054364;28;1412;-72
2022/08/24 03:06:43;;;;;;;;;;;;;;;;;;5054254;28;1269;-71
2022/08/24 03:09:10;;;;;;;;;;;;;;;;;;5072095;28;850;-71
2022/08/24 03:11:36;;;;;;;;;;;;;;;;;;5071663;28;1313;-71
2022/08/24 03:14:02;;;;;;;;;;;;;;;;;;5054150;28;920;-71
2022/08/24 03:16:30;;;;;;;;;;;;;;;;;;5054058;28;1906;-71
2022/08/24 03:18:56;;;;;;;;;;;;;;;;;;5070657;28;1318;-71
2022/08/24 03:21:24;;;;;;;;;;;;;;;;;;5070127;28;1624;-71
2022/08/24 03:23:53;;;;;;;;;;;;;;;;;;5053864;28;1604;-73
2022/08/24 03:26:20;;;;;;;;;;;;;;;;;;5053828;28;1633;-71
2022/08/24 03:28:46;;;;;;;;;;;;;;;;;;5051391;28;1439;-71
2022/08/24 03:31:12;;;;;;;;;;;;;;;;;;5077650;28;1486;-71
2022/08/24 03:33:39;;;;;;;;;;;;;;;;;;5065265;28;1454;-72
2022/08/24 03:36:05;;;;;;;;;;;;;;;;;;5067662;28;1969;-70
2022/08/24 03:38:32;;;;;;;;;;;;;;;;;;5053707;28;1218;-71
2022/08/24 03:41:00;;;;;;;;;;;;;;;;;;5070122;28;1574;-72
2022/08/24 03:46:11;;;;;;;;;;;;;;;;;;5081670;28;1423;-71
2022/08/24 03:48:39;;;;;;;;;;;;;;;;;;5061872;28;1489;-71
2022/08/24 03:51:06;;;;;;;;;;;;;;;;;;5073267;28;1405;-70
2022/08/24 03:53:32;;;;;;;;;;;;;;;;;;5088397;28;1551;-71
2022/08/24 03:56:01;;;;;;;;;;;;;;;;;;5062286;28;1918;-71
2022/08/24 03:58:27;;;;;;;;;;;;;;;;;;5069657;28;1570;-73
2022/08/24 04:00:54;;;;;;;;;;;;;;;;;;5056993;28;1340;-71
2022/08/24 04:03:20;;;;;;;;;;;;;;;;;;5069883;28;1347;-71
2022/08/24 04:05:46;;;;;;;;;;;;;;;;;;5070829;28;1596;-71
2022/08/24 04:08:13;;;;;;;;;;;;;;;;;;5053497;28;1207;-72
2022/08/24 04:10:43;;;;;;;;;;;;;;;;;;5059983;28;1427;-71
2022/08/24 04:13:11;;;;;;;;;;;;;;;;;;5055912;28;1413;-70
2022/08/24 04:15:38;;;;;;;;;;;;;;;;;;5064718;28;1918;-71
2022/08/24 04:18:05;;;;;;;;;;;;;;;;;;5073378;28;947;-71
2022/08/24 04:20:32;;;;;;;;;;;;;;;;;;5073583;28;1463;-70
2022/08/24 04:22:58;;;;;;;;;;;;;;;;;;5072747;28;1128;-70
2022/08/24 04:25:24;;;;;;;;;;;;;;;;;;5073442;28;1233;-72
2022/08/24 04:27:50;;;;;;;;;;;;;;;;;;5073037;28;1199;-71
2022/08/24 04:30:18;;;;;;;;;;;;;;;;;;5073437;28;1219;-71
2022/08/24 04:33:00;;;;;;;;;;;;;;;;;;5064874;28;1423;-71
2022/08/24 04:35:27;;;;;;;;;;;;;;;;;;5047144;28;1918;-71
2022/08/24 04:37:53;;;;;;;;;;;;;;;;;;5059269;28;1395;-72
2022/08/24 04:40:20;;;;;;;;;;;;;;;;;;5043556;28;1534;-71
2022/08/24 04:42:48;;;;;;;;;;;;;;;;;;5041443;28;1338;-72
2022/08/24 04:45:14;;;;;;;;;;;;;;;;;;5043823;28;1286;-70
2022/08/24 04:47:42;;;;;;;;;;;;;;;;;;5041324;28;1263;-71
2022/08/24 04:50:09;;;;;;;;;;;;;;;;;;5077975;23;1927;-75
2022/08/24 04:52:35;;;;;;;;;;;;;;;;;;5102036;28;1320;-75
2022/08/24 04:55:02;;;;;;;;;;;;;;;;;;5093305;28;1917;-75
2022/08/24 04:57:28;;;;;;;;;;;;;;;;;;5110319;28;1383;-75
2022/08/24 04:59:56;;;;;;;;;;;;;;;;;;5091371;28;1462;-75
2022/08/24 05:02:23;;;;;;;;;;;;;;;;;;5072624;28;1412;-75
2022/08/24 05:04:52;;;;;;;;;;;;;;;;;;5072215;28;1373;-75
2022/08/24 05:07:19;;;;;;;;;;;;;;;;;;5090191;28;1218;-75
2022/08/24 05:09:46;;;;;;;;;;;;;;;;;;5089743;28;1387;-74
2022/08/24 05:12:12;;;;;;;;;;;;;;;;;;5094398;28;849;-75
2022/08/24 05:14:44;;;;;;;;;;;;;;;;;;5093204;28;1104;-75
2022/08/24 05:17:10;;;;;;;;;;;;;;;;;;5093203;28;1922;-75
2022/08/24 05:19:37;;;;;;;;;;;;;;;;;;5093179;28;1322;-75
2022/08/24 05:22:04;;;;;;;;;;;;;;;;;;5093004;28;1106;-75
2022/08/24 05:24:31;;;;;;;;;;;;;;;;;;5093490;28;1471;-76
2022/08/24 05:26:59;;;;;;;;;;;;;;;;;;5092917;28;1299;-75
2022/08/24 05:29:26;;;;;;;;;;;;;;;;;;5087253;28;1505;-75
2022/08/24 05:31:52;;;;;;;;;;;;;;;;;;5089150;28;1361;-75
2022/08/24 05:34:19;;;;;;;;;;;;;;;;;;5075974;28;814;-75
2022/08/24 05:36:45;;;;;;;;;;;;;;;;;;5076165;28;1906;-75
2022/08/24 05:39:20;;;;;;;;;;;;;;;;;;5078459;28;1720;-74
2022/08/24 05:41:53;;;;;;;;;;;;;;;;;;5078176;28;1619;-76
2022/08/24 05:44:24;;;;;;;;;;;;;;;;;;5075203;28;1212;-75
2022/08/24 05:46:50;;;;;;;;;;;;;;;;;;5074722;28;1375;-76
2022/08/24 05:49:17;;;;;;;;;;;;;;;;;;5075363;28;1425;-75
2022/08/24 05:51:43;;;;;;;;;;;;;;;;;;5074985;28;1800;-75
2022/08/24 05:54:12;;;;;;;;;;;;;;;;;;5092253;28;1562;-75
2022/08/24 05:57:03;;;;;;;;;;;;;;;;;;5088795;28;2039;-75
2022/08/24 05:59:30;;;;;;;;;;;;;;;;;;5074906;28;1683;-75
2022/08/24 06:01:57;;;;;;;;;;;;;;;;;;5075015;28;1352;-75
2022/08/24 06:04:23;;;;;;;;;;;;;;;;;;5093269;28;1059;-75
2022/08/24 06:06:49;;;;;;;;;;;;;;;;;;5074517;28;1180;-75
2022/08/24 06:09:16;;;;;;;;;;;;;;;;;;5085096;28;1517;-75
2022/08/24 06:11:42;;;;;;;;;;;;;;;;;;5074580;28;1195;-75
2022/08/24 06:14:11;;;;;;;;;;;;;;;;;;5073035;28;1701;-76
2022/08/24 06:16:47;;;;;;;;;;;;;;;;;;5074027;28;1921;-76
2022/08/24 06:19:17;;;;;;;;;;;;;;;;;;5074763;28;1194;-76
2022/08/24 06:21:45;;;;;;;;;;;;;;;;;;5074305;28;1141;-76
2022/08/24 06:24:12;;;;;;;;;;;;;;;;;;5074854;28;1206;-75
2022/08/24 06:29:23;;;;;;;;;;;;;;;;;;5074747;28;1415;-75
2022/08/24 06:31:55;;;;;;;;;;;;;;;;;;5074564;28;1118;-75
2022/08/24 06:34:22;;;;;;;;;;;;;;;;;;5108627;28;1388;-76
2022/08/24 06:36:48;;;;;;;;;;;;;;;;;;5074344;28;1918;-75
2022/08/24 06:39:15;;;;;;;;;;;;;;;;;;5074724;28;1355;-76
2022/08/24 06:41:44;;;;;;;;;;;;;;;;;;5074139;28;1502;-76
2022/08/24 06:44:11;;;;;;;;;;;;;;;;;;5074247;28;1566;-76
2022/08/24 06:47:01;;;;;;;;;;;;;;;;;;5092121;28;1398;-76
2022/08/24 06:49:28;;;;;;;;;;;;;;;;;;5090933;28;1401;-74
2022/08/24 06:51:55;;;;;;;;;;;;;;;;;;5071716;28;1887;-76
2022/08/24 06:54:21;;;;;;;;;;;;;;;;;;5092108;28;1094;-76
2022/08/24 06:56:48;;;;;;;;;;;;;;;;;;5073520;28;1917;-76
2022/08/24 06:59:15;;;;;;;;;;;;;;;;;;5074354;28;1442;-76
2022/08/24 07:01:42;;;;;;;;;;;;;;;;;;5073063;28;1490;-76
2022/08/24 07:04:09;;;;;;;;;;;;;;;;;;5074145;28;1405;-76
2022/08/24 07:07:13;;;;;;;;;;;;;;;;;;5091645;28;1024;-76
2022/08/24 07:09:42;;;;;;;;;;;;;;;;;;5073473;28;1479;-76
2022/08/24 07:12:08;;;;;;;;;;;;;;;;;;5073704;28;1167;-76
2022/08/24 07:14:34;;;;;;;;;;;;;;;;;;5073717;28;1575;-76
2022/08/24 07:17:02;;;;;;;;;;;;;;;;;;5090439;28;1914;-76
2022/08/24 07:19:31;;;;;;;;;;;;;;;;;;5073614;28;1766;-76
2022/08/24 07:21:59;;;;;;;;;;;;;;;;;;5073208;28;1431;-76
2022/08/24 07:24:26;;;;;;;;;;;;;;;;;;5073765;28;1481;-76
2022/08/24 07:26:53;;;;;;;;;;;;;;;;;;5073195;28;1327;-76
2022/08/24 07:29:20;;;;;;;;;;;;;;;;;;5073684;28;1449;-76
2022/08/24 07:31:48;;;;;;;;;;;;;;;;;;5090872;28;1377;-76
2022/08/24 07:34:24;;;;;;;;;;;;;;;;;;5093281;28;1047;-76
2022/08/24 07:36:52;;;;;;;;;;;;;;;;;;5093336;28;1942;-76
2022/08/24 07:39:18;;;;;;;;;;;;;;;;;;5093812;28;1459;-75
2022/08/24 07:41:45;;;;;;;;;;;;;;;;;;5093155;28;1277;-76
2022/08/24 07:44:12;;;;;;;;;;;;;;;;;;5093714;28;1341;-76
2022/08/24 07:46:38;;;;;;;;;;;;;;;;;;5076192;28;1238;-76
2022/08/24 07:49:06;;;;;;;;;;;;;;;;;;5073520;28;1696;-76
2022/08/24 07:51:32;;;;;;;;;;;;;;;;;;5090917;28;1397;-76
2022/08/24 07:54:01;;;;;;;;;;;;;;;;;;5073522;28;1266;-76
2022/08/24 07:56:30;;;;;;;;;;;;;;;;;;5073047;28;1985;-76
2022/08/24 07:58:59;;;;;;;;;;;;;;;;;;5073663;28;1395;-77
2022/08/24 08:01:25;;;;;;;;;;;;;;;;;;5072717;28;1460;-76
2022/08/24 08:03:52;;;;;;;;;;;;;;;;;;5072783;28;1539;-76
2022/08/24 08:06:19;;;;;;;;;;;;;;;;;;5106878;28;1591;-76
2022/08/24 08:08:47;;;;;;;;;;;;;;;;;;5073034;28;1548;-76
2022/08/24 08:11:15;;;;;;;;;;;;;;;;;;5072770;28;1499;-76
2022/08/24 08:13:41;;;;;;;;;;;;;;;;;;5072873;28;1535;-76
2022/08/24 08:16:07;;;;;;;;;;;;;;;;;;5072476;28;1979;-76
2022/08/24 08:18:34;;;;;;;;;;;;;;;;;;5106743;28;1450;-76
2022/08/24 08:24:13;;;;;;;;;;;;;;;;;;5072922;28;1524;-76
2022/08/24 08:26:37;;;;;;;;;;;;;;;;;;5065059;28;1378;-76
2022/08/24 08:29:15;;;;;;;;;;;;;;;;;;5072988;28;1291;-77
2022/08/24 08:31:41;;;;;;;;;;;;;;;;;;5072630;28;1498;-77
2022/08/24 08:34:08;;;;;;;;;;;;;;;;;;5072812;28;984;-77
2022/08/24 08:36:38;;;;;;;;;;;;;;;;;;5072465;28;1910;-76
2022/08/24 08:39:06;;;;;;;;;;;;;;;;;;5073027;28;1413;-76
2022/08/24 08:41:52;;;;;;;;;;;;;;;;;;5072450;28;1746;-77
2022/08/24 08:44:24;;;;;;;;;;;;;;;;;;5073031;28;1505;-76
2022/08/24 08:46:52;;;;;;;;;;;;;;;;;;5075533;28;1507;-76
2022/08/24 08:49:55;;;;;;;;;;;;;;;;;;5076837;28;1336;-77
2022/08/24 08:52:33;;;;;;;;;;;;;;;;;;5085153;28;1340;-77
2022/08/24 08:55:04;;;;;;;;;;;;;;;;;;5084432;28;1187;-77
2022/08/24 08:57:49;;;;;;;;;;;;;;;;;;5076837;28;1915;-77
2022/08/24 09:00:16;;;;;;;;;;;;;;;;;;5076348;28;1510;-76
2022/08/24 09:03:04;;;;;;;;;;;;;;;;;;5075912;28;1224;-76
2022/08/24 09:05:42;;;;;;;;;;;;;;;;;;5076270;28;1534;-76
2022/08/24 09:08:11;;;;;;;;;;;;;;;;;;5076102;28;1001;-77
2022/08/24 09:10:44;;;;;;;;;;;;;;;;;;5076017;28;1388;-76
2022/08/24 09:13:17;;;;;;;;;;;;;;;;;;5075812;28;1316;-76
2022/08/24 09:15:52;;;;;;;;;;;;;;;;;;5075925;28;1222;-76
2022/08/24 09:18:23;;;;;;;;;;;;;;;;;;5075736;28;1918;-76
2022/08/24 09:20:56;;;;;;;;;;;;;;;;;;5075632;28;1341;-76
2022/08/24 09:23:25;;;;;;;;;;;;;;;;;;5075987;28;1312;-76
2022/08/24 09:25:54;;;;;;;;;;;;;;;;;;5075251;28;1441;-76
2022/08/24 09:28:27;;;;;;;;;;;;;;;;;;5075889;28;1226;-76
2022/08/24 09:31:05;;;;;;;;;;;;;;;;;;5093571;28;1317;-76
2022/08/24 09:33:35;;;;;;;;;;;;;;;;;;5093844;28;1134;-76
2022/08/24 09:36:08;;;;;;;;;;;;;;;;;;5093537;28;1055;-76
2022/08/24 09:38:43;;;;;;;;;;;;;;;;;;5093771;28;1126;-76
2022/08/24 09:41:16;;;;;;;;;;;;;;;;;;5093690;28;1409;-76
2022/08/24 09:43:49;;;;;;;;;;;;;;;;;;5093578;28;1063;-76
2022/08/24 09:46:23;;;;;;;;;;;;;;;;;;5093347;28;1150;-76
2022/08/24 09:49:01;;;;;;;;;;;;;;;;;;5093586;28;919;-76
2022/08/24 09:51:39;;;;;;;;;;;;;;;;;;5093392;28;1332;-76
2022/08/24 09:54:05;;;;;;;;;;;;;;;;;;5075658;28;1071;-77
2022/08/24 09:56:31;;;;;;;;;;;;;;;;;;5092670;28;1977;-76
2022/08/24 09:58:57;;;;;;;;;;;;;;;;;;5093453;28;1087;-77
2022/08/24 10:01:23;;;;;;;;;;;;;;;;;;5093084;28;1336;-76
2022/08/24 10:03:50;;;;;;;;;;;;;;;;;;5093270;28;1008;-76
2022/08/24 10:06:16;;;;;;;;;;;;;;;;;;5093176;28;790;-76
2022/08/24 10:08:42;;;;;;;;;;;;;;;;;;5074968;28;1130;-73
2022/08/24 10:11:08;;;;;;;;;;;;;;;;;;5092822;28;1471;-76
2022/08/24 10:13:34;;;;;;;;;;;;;;;;;;5093237;28;1110;-77
2022/08/24 10:16:01;;;;;;;;;;;;;;;;;;5092940;28;1047;-76
2022/08/24 10:18:27;;;;;;;;;;;;;;;;;;5093321;28;1981;-75
2022/08/24 10:20:54;;;;;;;;;;;;;;;;;;5092848;28;1420;-77
2022/08/24 10:23:20;;;;;;;;;;;;;;;;;;5092643;28;853;-77
2022/08/24 10:25:46;;;;;;;;;;;;;;;;;;5092754;28;1121;-76
2022/08/24 10:28:30;;;;;;;;;;;;;;;;;;5093047;28;901;-77
2022/08/24 10:30:56;;;;;;;;;;;;;;;;;;5092884;28;1415;-76
2022/08/24 10:33:22;;;;;;;;;;;;;;;;;;5074980;28;1321;-77
2022/08/24 10:36:02;;;;;;;;;;;;;;;;;;5092294;28;1007;-77
2022/08/24 10:41:36;;;;;;;;;;;;;;;;;;5092549;28;1325;-72
2022/08/24 10:44:15;;;;;;;;;;;;;;;;;;5074991;28;1129;-74
2022/08/24 10:46:48;;;;;;;;;;;;;;;;;;5092012;28;1154;-77
2022/08/24 10:49:26;;;;;;;;;;;;;;;;;;5092732;28;941;-74
2022/08/24 10:51:58;;;;;;;;;;;;;;;;;;5092220;28;877;-74
2022/08/24 10:54:24;;;;;;;;;;;;;;;;;;5074316;28;897;-74
2022/08/24 10:56:52;;;;;;;;;;;;;;;;;;5098032;22;1962;-72
2022/08/24 10:59:23;;;;;;;;;;;;;;;;;;5091585;28;1153;-72
2022/08/24 11:02:01;;;;;;;;;;;;;;;;;;5091609;28;1128;-72
2022/08/24 11:04:29;;;;;;;;;;;;;;;;;;5092289;28;992;-71
2022/08/24 11:07:03;;;;;;;;;;;;;;;;;;5078704;28;1411;-73
2022/08/24 11:09:42;;;;;;;;;;;;;;;;;;5071319;28;831;-72
2022/08/24 11:12:16;;;;;;;;;;;;;;;;;;5071383;28;1024;-72
2022/08/24 11:14:46;;;;;;;;;;;;;;;;;;5071691;28;1236;-72
2022/08/24 11:17:16;;;;;;;;;;;;;;;;;;5070965;28;1969;-73
2022/08/24 11:19:42;;;;;;;;;;;;;;;;;;5071505;28;940;-72
2022/08/24 11:22:21;;;;;;;;;;;;;;;;;;5071100;28;858;-73
2022/08/24 11:24:48;;;;;;;;;;;;;;;;;;5071275;28;1071;-72
2022/08/24 11:27:23;;;;;;;;;;;;;;;;;;5070858;28;1313;-72
2022/08/24 11:30:01;;;;;;;;;;;;;;;;;;5071230;28;1059;-72
2022/08/24 11:32:30;;;;;;;;;;;;;;;;;;5070922;28;1270;-73
2022/08/24 11:34:59;;;;;;;;;;;;;;;;;;5053497;28;795;-72
2022/08/24 11:37:30;;;;;;;;;;;;;;;;;;5070923;28;1972;-72
2022/08/24 11:39:56;;;;;;;;;;;;;;;;;;5071218;28;1072;-72
2022/08/24 11:42:25;;;;;;;;;;;;;;;;;;5071097;28;811;-73
2022/08/24 11:44:53;;;;;;;;;;;;;;;;;;5068904;28;1206;-72
2022/08/24 11:47:28;;;;;;;;;;;;;;;;;;5050611;28;1470;-72
2022/08/24 11:49:57;;;;;;;;;;;;;;;;;;5051397;28;1139;-72
2022/08/24 11:52:25;;;;;;;;;;;;;;;;;;5051014;28;1072;-73
2022/08/24 11:54:52;;;;;;;;;;;;;;;;;;5050867;28;803;-72
2022/08/24 11:57:20;;;;;;;;;;;;;;;;;;5050468;28;1914;-72
2022/08/24 11:59:49;;;;;;;;;;;;;;;;;;5033163;28;822;-72
2022/08/24 12:02:16;;;;;;;;;;;;;;;;;;5072289;28;1122;-72
2022/08/24 12:04:46;;;;;;;;;;;;;;;;;;5045588;28;1282;-71
2022/08/24 12:07:15;;;;;;;;;;;;;;;;;;5061316;28;1542;-72
2022/08/24 12:09:45;;;;;;;;;;;;;;;;;;5059292;28;1302;-69
2022/08/24 12:12:12;;;;;;;;;;;;;;;;;;5060075;28;1243;-72
2022/08/24 12:14:40;;;;;;;;;;;;;;;;;;5059311;28;1299;-72
2022/08/24 12:17:07;;;;;;;;;;;;;;;;;;5040321;28;1914;-72
2022/08/24 12:19:34;;;;;;;;;;;;;;;;;;5061127;28;1274;-72
2022/08/24 12:22:03;;;;;;;;;;;;;;;;;;5045987;28;1314;-72
2022/08/24 12:24:30;;;;;;;;;;;;;;;;;;5065535;28;1271;-72
2022/08/24 12:27:00;;;;;;;;;;;;;;;;;;5042109;28;1389;-73
2022/08/24 12:29:28;;;;;;;;;;;;;;;;;;5074988;28;774;-73
2022/08/24 12:31:55;;;;;;;;;;;;;;;;;;5074491;28;1518;-73
2022/08/24 12:34:22;;;;;;;;;;;;;;;;;;5056916;28;904;-73
2022/08/24 12:36:52;;;;;;;;;;;;;;;;;;5056255;28;1402;-73
2022/08/24 12:39:21;;;;;;;;;;;;;;;;;;5074231;28;1902;-73
2022/08/24 12:41:49;;;;;;;;;;;;;;;;;;5071680;28;1274;-73
2022/08/24 12:44:15;;;;;;;;;;;;;;;;;;5065618;28;1267;-74
2022/08/24 12:46:43;;;;;;;;;;;;;;;;;;5054859;28;1313;-74
2022/08/24 12:49:11;;;;;;;;;;;;;;;;;;5036854;28;842;-74
2022/08/24 12:51:40;;;;;;;;;;;;;;;;;;5054074;28;945;-73
2022/08/24 12:54:11;;;;;;;;;;;;;;;;;;5036304;28;1270;-74
2022/08/24 12:56:45;;;;;;;;;;;;;;;;;;5053925;28;1294;-73
2022/08/24 12:59:13;;;;;;;;;;;;;;;;;;5054150;28;1922;-74
2022/08/24 13:01:41;;;;;;;;;;;;;;;;;;5053738;28;1171;-73
2022/08/24 13:04:11;;;;;;;;;;;;;;;;;;5054008;28;901;-73
2022/08/24 13:06:39;;;;;;;;;;;;;;;;;;5036282;28;1321;-73
2022/08/24 13:09:08;;;;;;;;;;;;;;;;;;5036757;28;1410;-73
2022/08/24 13:11:34;;;;;;;;;;;;;;;;;;5036242;28;1169;-74
2022/08/24 13:14:07;;;;;;;;;;;;;;;;;;5042026;28;1294;-74
2022/08/24 13:16:54;;;;;;;;;;;;;;;;;;5068875;28;1397;-73
2022/08/24 13:19:31;;;;;;;;;;;;;;;;;;5067142;28;1918;-73
2022/08/24 13:21:59;;;;;;;;;;;;;;;;;;5073516;28;1107;-74
2022/08/24 13:24:52;;;;;;;;;;;;;;;;;;5072674;28;1283;-73
2022/08/24 13:27:45;;;;;;;;;;;;;;;;;;5055353;28;1398;-75
2022/08/24 13:30:19;;;;;;;;;;;;;;;;;;5073275;28;1123;-74
2022/08/24 13:32:46;;;;;;;;;;;;;;;;;;5055034;28;1241;-74
2022/08/24 13:35:29;;;;;;;;;;;;;;;;;;5055736;28;1151;-74
2022/08/24 13:38:10;;;;;;;;;;;;;;;;;;5055035;28;1972;-75
2022/08/24 13:40:41;;;;;;;;;;;;;;;;;;5072475;28;1157;-74
2022/08/24 13:43:11;;;;;;;;;;;;;;;;;;5084535;28;1122;-74
2022/08/24 13:45:39;;;;;;;;;;;;;;;;;;5063773;28;1399;-74
2022/08/24 13:48:18;;;;;;;;;;;;;;;;;;5054282;28;1133;-74
2022/08/24 13:50:47;;;;;;;;;;;;;;;;;;5086250;28;968;-73
2022/08/24 13:53:25;;;;;;;;;;;;;;;;;;5075038;28;1096;-73
2022/08/24 13:55:51;;;;;;;;;;;;;;;;;;5089557;28;1482;-73
2022/08/24 13:58:25;;;;;;;;;;;;;;;;;;5084151;28;1975;-73
2022/08/24 14:00:54;;;;;;;;;;;;;;;;;;5068586;28;1077;-73
2022/08/24 14:03:25;;;;;;;;;;;;;;;;;;5053281;28;1338;-73
2022/08/24 14:05:53;;;;;;;;;;;;;;;;;;5072651;28;1399;-73
2022/08/24 14:08:28;;;;;;;;;;;;;;;;;;5082863;28;940;-74
2022/08/24 14:10:56;;;;;;;;;;;;;;;;;;5093048;28;873;-73
2022/08/24 14:13:28;;;;;;;;;;;;;;;;;;5092805;28;918;-74
2022/08/24 14:18:37;;;;;;;;;;;;;;;;;;5092072;28;1914;-74
2022/08/24 14:21:07;;;;;;;;;;;;;;;;;;5092918;28;1067;-72
2022/08/24 14:23:45;;;;;;;;;;;;;;;;;;5092734;28;1028;-74
2022/08/24 14:26:26;;;;;;;;;;;;;;;;;;5092330;28;1269;-74
2022/08/24 14:28:52;;;;;;;;;;;;;;;;;;5092247;28;1067;-74
2022/08/24 14:31:21;;;;;;;;;;;;;;;;;;5092645;28;1087;-74
2022/08/24 14:33:50;;;;;;;;;;;;;;;;;;5074445;28;1225;-74
2022/08/24 14:36:18;;;;;;;;;;;;;;;;;;5074131;28;1286;-74
2022/08/24 14:39:06;;;;;;;;;;;;;;;;;;5092424;28;1914;-74
2022/08/24 14:41:40;;;;;;;;;;;;;;;;;;5074048;28;1358;-74
2022/08/24 14:44:11;;;;;;;;;;;;;;;;;;5092906;28;1114;-74
2022/08/24 14:46:41;;;;;;;;;;;;;;;;;;5075000;28;1299;-74
2022/08/24 14:49:09;;;;;;;;;;;;;;;;;;5072214;28;1426;-74
2022/08/24 14:51:40;;;;;;;;;;;;;;;;;;5053919;28;1051;-75
2022/08/24 14:54:10;;;;;;;;;;;;;;;;;;5072191;28;1052;-74
2022/08/24 14:56:43;;;;;;;;;;;;;;;;;;5071494;28;1483;-74
2022/08/24 14:59:10;;;;;;;;;;;;;;;;;;5071927;28;1922;-74
2022/08/24 15:01:43;;;;;;;;;;;;;;;;;;5053184;28;2230;-73
2022/08/24 15:04:12;;;;;;;;;;;;;;;;;;5071818;28;1133;-73
2022/08/24 15:06:40;;;;;;;;;;;;;;;;;;5071454;28;1339;-74
2022/08/24 15:09:09;;;;;;;;;;;;;;;;;;5067242;28;1247;-74
2022/08/24 15:11:35;;;;;;;;;;;;;;;;;;5051347;28;1095;-74
2022/08/24 15:14:04;;;;;;;;;;;;;;;;;;5051790;28;1035;-74
2022/08/24 15:16:33;;;;;;;;;;;;;;;;;;5051162;28;1294;-74
2022/08/24 15:19:03;;;;;;;;;;;;;;;;;;5051406;28;1914;-74
2022/08/24 15:21:33;;;;;;;;;;;;;;;;;;5051505;28;978;-74
2022/08/24 15:24:03;;;;;;;;;;;;;;;;;;5051355;28;791;-73
2022/08/24 15:26:31;;;;;;;;;;;;;;;;;;5033142;28;1379;-74
2022/08/24 15:28:58;;;;;;;;;;;;;;;;;;5051276;28;1110;-75
2022/08/24 15:31:25;;;;;;;;;;;;;;;;;;5059979;28;1938;-73
2022/08/24 15:33:52;;;;;;;;;;;;;;;;;;5068160;28;1115;-74
2022/08/24 15:36:20;;;;;;;;;;;;;;;;;;5033100;28;1387;-74
2022/08/24 15:38:46;;;;;;;;;;;;;;;;;;5033336;28;1975;-74
2022/08/24 15:41:13;;;;;;;;;;;;;;;;;;5050993;28;1087;-74
2022/08/24 15:43:40;;;;;;;;;;;;;;;;;;5051314;28;1032;-74
2022/08/24 15:46:06;;;;;;;;;;;;;;;;;;5050846;28;1299;-74
2022/08/24 15:48:32;;;;;;;;;;;;;;;;;;5051154;28;941;-74
2022/08/24 15:50:59;;;;;;;;;;;;;;;;;;5051141;28;1115;-74
2022/08/24 15:53:34;;;;;;;;;;;;;;;;;;5050410;28;917;-74
2022/08/24 15:56:08;;;;;;;;;;;;;;;;;;5050422;28;1388;-73
2022/08/24 15:58:34;;;;;;;;;;;;;;;;;;5051120;28;1976;-75
2022/08/24 16:03:48;;;;;;;;;;;;;;;;;;5065604;28;1310;-73
2022/08/24 16:06:25;;;;;;;;;;;;;;;;;;5052959;28;1702;-73
2022/08/24 16:08:58;;;;;;;;;;;;;;;;;;5071207;28;897;-73
2022/08/24 16:11:26;;;;;;;;;;;;;;;;;;5070370;28;917;-73
2022/08/24 16:13:52;;;;;;;;;;;;;;;;;;5052178;28;1218;-74
2022/08/24 16:16:19;;;;;;;;;;;;;;;;;;5071288;28;1372;-74
2022/08/24 16:18:47;;;;;;;;;;;;;;;;;;5070855;28;1918;-73
2022/08/24 16:21:14;;;;;;;;;;;;;;;;;;5053031;28;1219;-74
2022/08/24 16:23:40;;;;;;;;;;;;;;;;;;5052974;28;1368;-74
2022/08/24 16:26:21;;;;;;;;;;;;;;;;;;5070921;28;1344;-74
2022/08/24 16:28:48;;;;;;;;;;;;;;;;;;5052036;28;826;-74
2022/08/24 16:31:15;;;;;;;;;;;;;;;;;;5070681;28;1056;-74
2022/08/24 16:33:42;;;;;;;;;;;;;;;;;;5070849;28;1264;-74
2022/08/24 16:36:09;;;;;;;;;;;;;;;;;;5064377;28;1427;-72
2022/08/24 16:38:36;;;;;;;;;;;;;;;;;;5065968;28;1906;-73
2022/08/24 16:41:03;;;;;;;;;;;;;;;;;;5050756;28;925;-74
2022/08/24 16:43:31;;;;;;;;;;;;;;;;;;5050661;28;808;-74
2022/08/24 16:45:57;;;;;;;;;;;;;;;;;;5050779;28;1330;-74
2022/08/24 16:48:23;;;;;;;;;;;;;;;;;;5050980;28;1130;-74
2022/08/24 16:50:50;;;;;;;;;;;;;;;;;;5059104;28;1516;-74
2022/08/24 16:53:16;;;;;;;;;;;;;;;;;;5050466;28;1116;-74
2022/08/24 16:55:42;;;;;;;;;;;;;;;;;;5050619;28;1380;-74
2022/08/24 16:58:08;;;;;;;;;;;;;;;;;;5068782;28;1159;-75
2022/08/24 17:00:36;;;;;;;;;;;;;;;;;;5068550;28;1917;-74
2022/08/24 17:03:02;;;;;;;;;;;;;;;;;;5050174;28;1167;-74
2022/08/24 17:05:29;;;;;;;;;;;;;;;;;;5050989;28;1262;-73
2022/08/24 17:07:55;;;;;;;;;;;;;;;;;;5071840;28;818;-74
2022/08/24 17:10:22;;;;;;;;;;;;;;;;;;5072416;28;1048;-74
2022/08/24 17:12:49;;;;;;;;;;;;;;;;;;5071773;28;1067;-74
2022/08/24 17:15:16;;;;;;;;;;;;;;;;;;5072330;28;1115;-74
2022/08/24 17:17:43;;;;;;;;;;;;;;;;;;5071889;28;1846;-74
2022/08/24 17:20:10;;;;;;;;;;;;;;;;;;5071849;28;1988;-74
2022/08/24 17:22:36;;;;;;;;;;;;;;;;;;5053827;28;1274;-74
2022/08/24 17:25:03;;;;;;;;;;;;;;;;;;5071738;28;1142;-74
2022/08/24 17:27:30;;;;;;;;;;;;;;;;;;5070353;28;1507;-74
2022/08/24 17:29:56;;;;;;;;;;;;;;;;;;5065156;28;1575;-73
2022/08/24 17:32:22;;;;;;;;;;;;;;;;;;5040354;28;1479;-74
2022/08/24 17:34:50;;;;;;;;;;;;;;;;;;5051624;28;1159;-74